Pu Dun — XUUB9 — position and weather

sailwx.info

Track history (hours):
 
Tides and Currents Weather Stations Pressure Air Temp Water Temp Dewpoint Dewpoint Depression Visibility Wind Speed Wind Dir Waves Ship Positions

Pu Dun

Last reported at 2014-Jul-30 06:32 UTC. Time now 2014-Jul-31 13:34 UTC.
Position N 31°22' E 121°37'.

Length 75 m; draft 4.9 m.

Type: Cargo ship. MMSI: 515213000.

Date/timePositionNaut miles runAvg speedWind from/ knotsBaromVisibWave heightAir tempDewpointWater temp
2014-Jul-30 06:32N 31°22' E 121°37'7 7.4
2014-Jul-30 05:32N 31°26' E 121°29'6 5.8
2014-Jul-30 04:32N 31°30' E 121°25'1110.9
2014-Jul-30 03:32N 31°38' E 121°15'2512.4
2014-Jul-30 01:30N 31°54' E 120°53'1111.4
2014-Jul-30 00:33N 32°00' E 120°42'6 6.4
2014-Jul-29 23:33N 31°60' E 120°35'0 0.0
2014-Jul-29 22:27N 31°60' E 120°35'0 0.0
2014-Jul-29 21:33N 31°60' E 120°35'0 0.0
2014-Jul-29 20:33N 31°60' E 120°35'0 0.0
2014-Jul-29 19:27N 31°60' E 120°35'0 0.0
2014-Jul-29 18:24N 31°60' E 120°35'0 0.0
2014-Jul-29 17:33N 31°60' E 120°35'0 0.0
2014-Jul-29 16:30N 31°60' E 120°35'0 0.0
2014-Jul-29 15:33N 31°60' E 120°35'0 0.0
2014-Jul-29 14:33N 31°60' E 120°35'0 0.0
2014-Jul-29 13:30N 31°60' E 120°35'0 0.0
2014-Jul-29 12:30N 31°60' E 120°35'0 0.0
2014-Jul-29 11:30N 31°60' E 120°35'0 0.0
2014-Jul-29 10:33N 31°60' E 120°35'0 0.0
2014-Jul-29 09:30N 31°60' E 120°35'0 0.0
2014-Jul-29 08:33N 31°60' E 120°35'0 0.0
2014-Jul-29 07:33N 31°60' E 120°35'0 0.0
2014-Jul-29 06:33N 31°60' E 120°35'0 0.0
2014-Jul-29 05:33N 31°60' E 120°35'0 0.0
2014-Jul-29 04:33N 31°60' E 120°35'0 0.0
2014-Jul-29 03:33N 31°60' E 120°35'5 4.9
2014-Jul-29 02:33N 32°00' E 120°41'8 7.6
2014-Jul-29 01:33N 31°60' E 120°50'8 8.0
2014-Jul-29 00:33N 31°52' E 120°54'24 8.1
2014-Jul-28 21:31N 31°37' E 121°16'1010.2
2014-Jul-28 20:33N 31°30' E 121°25'10 9.6
2014-Jul-28 19:32N 31°24' E 121°33'4510.9
2014-Jul-28 15:25N 31°00' E 122°18'2 0.4
2014-Jul-28 10:17N 30°59' E 122°19'8 8.8
2014-Jul-28 09:24N 30°54' E 122°26'8 9.4
2014-Jul-28 08:32N 30°49' E 122°33'9 8.9
2014-Jul-28 07:33N 30°41' E 122°38'1111.2
2014-Jul-28 06:33N 30°30' E 122°38'5012.2
2014-Jul-28 02:29N 29°41' E 122°27'39811.6
2014-Jul-26 16:11N 24°10' E 118°20'811.7
2014-Jul-26 15:31N 24°05' E 118°13'2412.4
2014-Jul-26 13:33N 23°49' E 117°54'1313.3
2014-Jul-26 12:33N 23°40' E 117°43'224 9.8
2014-Jul-25 13:33N 22°23' E 113°54'7 2.4
2014-Jul-25 10:28N 22°30' E 113°51'0 0.0
2014-Jul-25 09:22N 22°30' E 113°51'0 0.0
2014-Jul-25 08:22N 22°30' E 113°51'0 0.0
2014-Jul-25 07:34N 22°30' E 113°51'0 0.0
2014-Jul-25 06:10N 22°30' E 113°51'0 0.0
2014-Jul-24 00:33N 22°30' E 113°51'0 0.0
2014-Jul-23 04:26N 22°30' E 113°51'2 2.0
2014-Jul-23 03:22N 22°28' E 113°52'9 9.5
2014-Jul-23 02:25N 22°19' E 113°51'8 9.7
2014-Jul-23 01:33N 22°11' E 113°50'5 0.4
2014-Jul-22 12:27N 22°06' E 113°53'0 0.0
2014-Jul-22 11:33N 22°06' E 113°53'0 0.0
2014-Jul-22 08:27N 22°06' E 113°52'0 0.0
2014-Jul-22 04:09N 22°06' E 113°53'0 0.0
2014-Jul-22 03:33N 22°06' E 113°53'0 0.0
2014-Jul-22 02:33N 22°06' E 113°53'0 0.0
2014-Jul-22 01:27N 22°06' E 113°53'0 0.0
2014-Jul-21 23:33N 22°06' E 113°53'0 0.1
2014-Jul-21 22:33N 22°06' E 113°52'0 0.0
2014-Jul-21 18:33N 22°06' E 113°52'0 0.0
2014-Jul-21 17:27N 22°06' E 113°52'0 0.0
2014-Jul-21 15:21N 22°06' E 113°53'0 0.0
2014-Jul-21 13:09N 22°06' E 113°52'0 0.0
2014-Jul-21 12:15N 22°06' E 113°52'0 0.0
2014-Jul-21 11:33N 22°06' E 113°52'0 0.0
2014-Jul-21 10:15N 22°06' E 113°52'0 0.0
2014-Jul-21 07:15N 22°06' E 113°52'0 0.0
2014-Jul-21 06:27N 22°06' E 113°52'0 0.0
2014-Jul-21 05:21N 22°06' E 113°52'0 0.0
2014-Jul-21 03:21N 22°06' E 113°53'0 0.0
2014-Jul-21 02:33N 22°06' E 113°53'0 0.0
2014-Jul-21 01:21N 22°06' E 113°53'0 0.0
2014-Jul-21 00:27N 22°06' E 113°53'0 0.0
2014-Jul-20 23:33N 22°06' E 113°53'0 0.1
2014-Jul-20 22:33N 22°06' E 113°52'0 0.0
2014-Jul-20 21:09N 22°06' E 113°52'0 0.0
2014-Jul-20 20:23N 22°06' E 113°52'3 4.2
2014-Jul-20 19:33N 22°03' E 113°53'  
Track history (hours):
 
Tides and Currents Weather Stations Pressure Air Temp Water Temp Dewpoint Dewpoint Depression Visibility Wind Speed Wind Dir Waves Ship Positions

Pu Dun

Last reported at 2014-Jul-30 06:32 UTC. Time now 2014-Jul-31 13:34 UTC.
Position N 31°22' E 121°37'.

Length 75 m; draft 4.9 m.

Type: Cargo ship. MMSI: 515213000.

Date/timePositionNaut miles runAvg speedWind from/ knotsBaromVisibWave heightAir tempDewpointWater temp
2014-Jul-30 06:32N 31°22' E 121°37'7 7.4
2014-Jul-30 05:32N 31°26' E 121°29'6 5.8
2014-Jul-30 04:32N 31°30' E 121°25'1110.9
2014-Jul-30 03:32N 31°38' E 121°15'2512.4
2014-Jul-30 01:30N 31°54' E 120°53'1111.4
2014-Jul-30 00:33N 32°00' E 120°42'6 6.4
2014-Jul-29 23:33N 31°60' E 120°35'0 0.0
2014-Jul-29 22:27N 31°60' E 120°35'0 0.0
2014-Jul-29 21:33N 31°60' E 120°35'0 0.0
2014-Jul-29 20:33N 31°60' E 120°35'0 0.0
2014-Jul-29 19:27N 31°60' E 120°35'0 0.0
2014-Jul-29 18:24N 31°60' E 120°35'0 0.0
2014-Jul-29 17:33N 31°60' E 120°35'0 0.0
2014-Jul-29 16:30N 31°60' E 120°35'0 0.0
2014-Jul-29 15:33N 31°60' E 120°35'0 0.0
2014-Jul-29 14:33N 31°60' E 120°35'0 0.0
2014-Jul-29 13:30N 31°60' E 120°35'0 0.0
2014-Jul-29 12:30N 31°60' E 120°35'0 0.0
2014-Jul-29 11:30N 31°60' E 120°35'0 0.0
2014-Jul-29 10:33N 31°60' E 120°35'0 0.0
2014-Jul-29 09:30N 31°60' E 120°35'0 0.0
2014-Jul-29 08:33N 31°60' E 120°35'0 0.0
2014-Jul-29 07:33N 31°60' E 120°35'0 0.0
2014-Jul-29 06:33N 31°60' E 120°35'0 0.0
2014-Jul-29 05:33N 31°60' E 120°35'0 0.0
2014-Jul-29 04:33N 31°60' E 120°35'0 0.0
2014-Jul-29 03:33N 31°60' E 120°35'5 4.9
2014-Jul-29 02:33N 32°00' E 120°41'8 7.6
2014-Jul-29 01:33N 31°60' E 120°50'8 8.0
2014-Jul-29 00:33N 31°52' E 120°54'24 8.1
2014-Jul-28 21:31N 31°37' E 121°16'1010.2
2014-Jul-28 20:33N 31°30' E 121°25'10 9.6
2014-Jul-28 19:32N 31°24' E 121°33'4510.9
2014-Jul-28 15:25N 31°00' E 122°18'2 0.4
2014-Jul-28 10:17N 30°59' E 122°19'8 8.8
2014-Jul-28 09:24N 30°54' E 122°26'8 9.4
2014-Jul-28 08:32N 30°49' E 122°33'9 8.9
2014-Jul-28 07:33N 30°41' E 122°38'1111.2
2014-Jul-28 06:33N 30°30' E 122°38'5012.2
2014-Jul-28 02:29N 29°41' E 122°27'39811.6
2014-Jul-26 16:11N 24°10' E 118°20'811.7
2014-Jul-26 15:31N 24°05' E 118°13'2412.4
2014-Jul-26 13:33N 23°49' E 117°54'1313.3
2014-Jul-26 12:33N 23°40' E 117°43'224 9.8
2014-Jul-25 13:33N 22°23' E 113°54'7 2.4
2014-Jul-25 10:28N 22°30' E 113°51'0 0.0
2014-Jul-25 09:22N 22°30' E 113°51'0 0.0
2014-Jul-25 08:22N 22°30' E 113°51'0 0.0
2014-Jul-25 07:34N 22°30' E 113°51'0 0.0
2014-Jul-25 06:10N 22°30' E 113°51'0 0.0
2014-Jul-24 00:33N 22°30' E 113°51'0 0.0
2014-Jul-23 04:26N 22°30' E 113°51'2 2.0
2014-Jul-23 03:22N 22°28' E 113°52'9 9.5
2014-Jul-23 02:25N 22°19' E 113°51'8 9.7
2014-Jul-23 01:33N 22°11' E 113°50'5 0.4
2014-Jul-22 12:27N 22°06' E 113°53'0 0.0
2014-Jul-22 11:33N 22°06' E 113°53'0 0.0
2014-Jul-22 08:27N 22°06' E 113°52'0 0.0
2014-Jul-22 04:09N 22°06' E 113°53'0 0.0
2014-Jul-22 03:33N 22°06' E 113°53'0 0.0
2014-Jul-22 02:33N 22°06' E 113°53'0 0.0
2014-Jul-22 01:27N 22°06' E 113°53'0 0.0
2014-Jul-21 23:33N 22°06' E 113°53'0 0.1
2014-Jul-21 22:33N 22°06' E 113°52'0 0.0
2014-Jul-21 18:33N 22°06' E 113°52'0 0.0
2014-Jul-21 17:27N 22°06' E 113°52'0 0.0
2014-Jul-21 15:21N 22°06' E 113°53'0 0.0
2014-Jul-21 13:09N 22°06' E 113°52'0 0.0
2014-Jul-21 12:15N 22°06' E 113°52'0 0.0
2014-Jul-21 11:33N 22°06' E 113°52'0 0.0
2014-Jul-21 10:15N 22°06' E 113°52'0 0.0
2014-Jul-21 07:15N 22°06' E 113°52'0 0.0
2014-Jul-21 06:27N 22°06' E 113°52'0 0.0
2014-Jul-21 05:21N 22°06' E 113°52'0 0.0
2014-Jul-21 03:21N 22°06' E 113°53'0 0.0
2014-Jul-21 02:33N 22°06' E 113°53'0 0.0
2014-Jul-21 01:21N 22°06' E 113°53'0 0.0
2014-Jul-21 00:27N 22°06' E 113°53'0 0.0
2014-Jul-20 23:33N 22°06' E 113°53'0 0.1
2014-Jul-20 22:33N 22°06' E 113°52'0 0.0
2014-Jul-20 21:09N 22°06' E 113°52'0 0.0
2014-Jul-20 20:23N 22°06' E 113°52'3 4.2
2014-Jul-20 19:33N 22°03' E 113°53'  

Dump ship's entire track history